createdAt,value
2022-08-23T00:02:01.413Z,19.10
2022-08-23T00:04:37.923Z,18.89
2022-08-23T00:07:08.194Z,18.73
2022-08-23T00:09:36.062Z,18.71
2022-08-23T00:12:19.404Z,18.58
2022-08-23T00:14:52.143Z,18.40
2022-08-23T00:17:30.975Z,18.33
2022-08-23T00:20:11.094Z,18.24
2022-08-23T00:22:40.079Z,18.14
2022-08-23T00:25:10.429Z,17.76
2022-08-23T00:27:38.374Z,17.39
2022-08-23T00:30:08.335Z,17.18
2022-08-23T00:32:37.221Z,17.52
2022-08-23T00:35:05.731Z,17.00
2022-08-23T00:37:33.879Z,16.86
2022-08-23T00:40:02.033Z,16.45
2022-08-23T00:42:59.599Z,16.72
2022-08-23T00:46:02.954Z,16.73
2022-08-23T00:48:34.922Z,16.69
2022-08-23T00:51:29.335Z,16.44
2022-08-23T00:54:01.631Z,16.56
2022-08-23T00:56:34.655Z,15.93
2022-08-23T00:59:02.077Z,16.11
2022-08-23T01:01:29.192Z,16.04
2022-08-23T01:04:04.167Z,16.03
2022-08-23T01:06:52.162Z,15.91
2022-08-23T01:09:22.115Z,15.92
2022-08-23T01:11:54.468Z,16.11
2022-08-23T01:14:47.839Z,15.91
2022-08-23T01:17:27.280Z,15.90
2022-08-23T01:20:15.582Z,16.08
2022-08-23T01:23:00.034Z,15.64
2022-08-23T01:25:31.196Z,15.49
2022-08-23T01:27:59.665Z,15.50
2022-08-23T01:30:32.595Z,15.28
2022-08-23T01:33:05.557Z,15.11
2022-08-23T01:35:45.281Z,14.82
2022-08-23T01:38:13.328Z,14.98
2022-08-23T01:40:42.751Z,15.12
2022-08-23T01:43:11.523Z,14.69
2022-08-23T01:45:39.734Z,14.76
2022-08-23T01:48:08.617Z,14.83
2022-08-23T01:53:08.682Z,14.70
2022-08-23T01:55:37.142Z,14.69
2022-08-23T01:58:05.740Z,14.86
2022-08-23T02:00:38.378Z,14.51
2022-08-23T02:03:08.182Z,14.63
2022-08-23T02:05:37.242Z,14.48
2022-08-23T02:08:26.402Z,14.30
2022-08-23T02:10:55.687Z,14.22
2022-08-23T02:13:24.685Z,14.27
2022-08-23T02:15:52.466Z,14.16
2022-08-23T02:18:21.462Z,14.18
2022-08-23T02:20:51.977Z,14.10
2022-08-23T02:23:21.121Z,14.24
2022-08-23T02:25:48.610Z,14.18
2022-08-23T02:28:15.976Z,14.07
2022-08-23T02:30:46.022Z,14.00
2022-08-23T02:33:14.235Z,13.94
2022-08-23T02:35:43.537Z,13.80
2022-08-23T02:38:12.855Z,13.79
2022-08-23T02:40:40.748Z,13.57
2022-08-23T02:43:08.629Z,13.61
2022-08-23T02:45:37.414Z,13.46
2022-08-23T02:48:05.475Z,13.52
2022-08-23T02:50:41.493Z,13.36
2022-08-23T02:53:09.386Z,13.46
2022-08-23T02:55:36.449Z,13.41
2022-08-23T02:58:05.535Z,13.71
2022-08-23T03:00:33.080Z,13.85
2022-08-23T03:03:00.119Z,13.57
2022-08-23T03:05:27.503Z,13.44
2022-08-23T03:07:54.736Z,13.22
2022-08-23T03:10:22.331Z,12.90
2022-08-23T03:12:55.401Z,12.80
2022-08-23T03:15:22.725Z,12.61
2022-08-23T03:17:49.919Z,12.38
2022-08-23T03:20:17.099Z,12.30
2022-08-23T03:22:47.712Z,12.26
2022-08-23T03:25:21.709Z,12.54
2022-08-23T03:28:08.435Z,12.54
2022-08-23T03:30:39.646Z,12.52
2022-08-23T03:33:07.861Z,12.72
2022-08-23T03:35:35.091Z,12.85
2022-08-23T03:38:03.601Z,12.92
2022-08-23T03:40:30.826Z,12.69
2022-08-23T03:42:57.865Z,12.70
2022-08-23T03:45:26.214Z,12.88
2022-08-23T03:47:53.429Z,12.79
2022-08-23T03:50:21.103Z,12.62
2022-08-23T03:52:48.638Z,12.73
2022-08-23T03:55:16.190Z,12.57
2022-08-23T03:57:45.849Z,12.70
2022-08-23T04:00:15.479Z,12.54
2022-08-23T04:02:48.921Z,13.02
2022-08-23T04:05:16.402Z,13.19
2022-08-23T04:08:09.438Z,12.98
2022-08-23T04:10:39.205Z,13.20
2022-08-23T04:13:09.038Z,13.07
2022-08-23T04:15:36.975Z,12.58
2022-08-23T04:18:06.313Z,12.29
2022-08-23T04:20:36.945Z,12.17
2022-08-23T04:23:05.859Z,12.07
2022-08-23T04:25:44.713Z,12.10
2022-08-23T04:28:12.328Z,12.41
2022-08-23T04:30:39.425Z,12.39
2022-08-23T04:33:10.202Z,12.52
2022-08-23T04:35:41.382Z,12.26
2022-08-23T04:38:24.444Z,12.22
2022-08-23T04:41:14.223Z,12.17
2022-08-23T04:43:44.035Z,12.50
2022-08-23T04:46:17.573Z,12.72
2022-08-23T04:48:47.907Z,12.84
2022-08-23T04:51:17.026Z,12.89
2022-08-23T04:53:44.499Z,12.92
2022-08-23T04:56:30.727Z,13.06
2022-08-23T04:58:57.939Z,13.01
2022-08-23T05:01:25.993Z,13.06
2022-08-23T05:03:55.365Z,12.55
2022-08-23T05:06:25.180Z,12.24
2022-08-23T05:08:53.501Z,12.23
2022-08-23T05:11:21.189Z,12.74
2022-08-23T05:13:49.997Z,13.53
2022-08-23T05:16:17.873Z,14.60
2022-08-23T05:18:53.853Z,16.16
2022-08-23T05:21:24.054Z,17.49
2022-08-23T05:23:54.678Z,18.08
2022-08-23T05:26:23.993Z,18.45
2022-08-23T05:28:51.145Z,18.99
2022-08-23T05:31:24.749Z,19.08
2022-08-23T05:33:58.985Z,19.40
2022-08-23T05:37:01.428Z,20.17
2022-08-23T05:39:36.718Z,20.23
2022-08-23T05:42:13.883Z,20.46
2022-08-23T05:44:42.476Z,21.01
2022-08-23T05:47:15.112Z,21.82
2022-08-23T05:50:18.456Z,22.42
2022-08-23T05:52:50.365Z,23.28
2022-08-23T05:55:18.583Z,23.41
2022-08-23T05:57:55.908Z,23.67
2022-08-23T06:00:37.875Z,22.96
2022-08-23T06:03:08.694Z,22.62
2022-08-23T06:05:40.808Z,23.18
2022-08-23T06:08:08.668Z,23.41
2022-08-23T06:10:42.040Z,23.50
2022-08-23T06:13:26.931Z,23.57
2022-08-23T06:15:54.722Z,23.44
2022-08-23T06:18:22.377Z,23.23
2022-08-23T06:21:03.785Z,23.02
2022-08-23T06:23:41.632Z,23.05
2022-08-23T06:26:15.044Z,23.21
2022-08-23T06:28:51.035Z,24.38
2022-08-23T06:31:41.415Z,24.79
2022-08-23T06:34:39.037Z,24.48
2022-08-23T06:37:42.813Z,25.07
2022-08-23T06:40:41.515Z,24.97
2022-08-23T06:43:27.632Z,25.26
2022-08-23T06:46:29.499Z,25.25
2022-08-23T06:49:00.846Z,25.50
2022-08-23T06:51:33.507Z,26.00
2022-08-23T06:54:20.947Z,27.09
2022-08-23T06:57:06.582Z,26.53
2022-08-23T06:59:49.894Z,26.46
2022-08-23T07:02:52.139Z,26.69
2022-08-23T07:05:42.950Z,26.93
2022-08-23T07:08:18.845Z,26.93
2022-08-23T07:10:45.831Z,26.92
2022-08-23T07:13:16.922Z,26.97
2022-08-23T07:15:45.644Z,27.25
2022-08-23T07:18:18.437Z,27.38
2022-08-23T07:20:45.409Z,27.80
2022-08-23T07:23:12.417Z,27.92
2022-08-23T07:25:42.419Z,27.79
2022-08-23T07:28:14.076Z,28.62
2022-08-23T07:30:45.268Z,28.96
2022-08-23T07:33:13.759Z,29.14
2022-08-23T07:35:59.148Z,30.16
2022-08-23T07:38:29.929Z,29.78
2022-08-23T07:40:59.044Z,28.89
2022-08-23T07:43:26.221Z,29.22
2022-08-23T07:45:53.835Z,29.70
2022-08-23T07:48:43.355Z,31.31
2022-08-23T07:51:14.719Z,31.97
2022-08-23T07:53:45.904Z,31.70
2022-08-23T07:56:16.499Z,31.51
2022-08-23T07:58:56.811Z,31.95
2022-08-23T08:01:44.195Z,32.56
2022-08-23T08:04:12.706Z,33.30
2022-08-23T08:06:59.866Z,32.68
2022-08-23T08:09:37.846Z,33.12
2022-08-23T08:12:05.744Z,33.98
2022-08-23T08:14:33.861Z,34.85
2022-08-23T08:17:03.728Z,35.03
2022-08-23T08:20:06.682Z,33.68
2022-08-23T08:22:58.549Z,33.15
2022-08-23T08:25:27.191Z,32.37
2022-08-23T08:27:55.107Z,33.92
2022-08-23T08:30:22.167Z,32.67
2022-08-23T08:32:49.752Z,32.23
2022-08-23T08:35:16.902Z,32.07
2022-08-23T08:37:44.055Z,32.40
2022-08-23T08:40:12.038Z,33.38
2022-08-23T08:43:05.695Z,33.43
2022-08-23T08:45:58.707Z,32.15
2022-08-23T08:48:30.541Z,33.35
2022-08-23T08:51:11.745Z,34.49
2022-08-23T08:53:45.288Z,34.10
2022-08-23T08:56:32.103Z,34.97
2022-08-23T08:59:29.401Z,34.59
2022-08-23T09:01:58.628Z,35.18
2022-08-23T09:04:37.192Z,35.88
2022-08-23T09:07:21.203Z,35.53
2022-08-23T09:10:09.837Z,36.10
2022-08-23T09:13:21.944Z,37.09
2022-08-23T09:16:08.515Z,37.53
2022-08-23T09:18:37.088Z,36.96
2022-08-23T09:21:08.262Z,36.60
2022-08-23T09:24:00.614Z,36.83
2022-08-23T09:26:40.716Z,37.37
2022-08-23T09:29:20.773Z,37.02
2022-08-23T09:32:05.977Z,33.78
2022-08-23T09:34:36.223Z,34.88
2022-08-23T09:37:27.202Z,34.88
2022-08-23T09:40:38.971Z,34.26
2022-08-23T09:43:16.708Z,36.83
2022-08-23T09:45:50.223Z,37.37
2022-08-23T09:48:34.467Z,36.60
2022-08-23T09:51:22.427Z,38.10
2022-08-23T09:53:55.217Z,36.68
2022-08-23T09:56:26.967Z,35.32
2022-08-23T09:58:54.822Z,37.41
2022-08-23T10:01:39.520Z,37.89
2022-08-23T10:04:17.502Z,38.96
2022-08-23T10:06:46.283Z,38.68
2022-08-23T10:09:30.817Z,40.00
2022-08-23T10:12:01.633Z,38.12
2022-08-23T10:14:33.026Z,35.22
2022-08-23T10:17:14.056Z,35.37
2022-08-23T10:19:59.071Z,35.56
2022-08-23T10:22:29.120Z,37.03
2022-08-23T10:25:59.890Z,37.63
2022-08-23T10:29:03.903Z,38.15
2022-08-23T10:32:00.689Z,40.27
2022-08-23T10:35:07.509Z,38.71
2022-08-23T10:37:59.541Z,31.55
2022-08-23T10:40:45.251Z,32.88
2022-08-23T10:43:34.534Z,35.09
2022-08-23T10:46:02.928Z,34.41
2022-08-23T10:48:43.897Z,35.29
2022-08-23T10:51:31.804Z,36.82
2022-08-23T10:54:09.405Z,36.04
2022-08-23T10:56:43.022Z,37.48
2022-08-23T10:59:23.942Z,39.13
2022-08-23T11:02:20.027Z,40.08
2022-08-23T11:05:17.640Z,39.91
2022-08-23T11:08:09.739Z,36.60
2022-08-23T11:10:55.764Z,34.84
2022-08-23T11:13:29.939Z,33.65
2022-08-23T11:16:05.328Z,34.60
2022-08-23T11:18:47.621Z,35.78
2022-08-23T11:21:28.444Z,37.53
2022-08-23T11:23:59.388Z,36.15
2022-08-23T11:26:36.312Z,37.25
2022-08-23T11:29:06.367Z,35.10
2022-08-23T11:31:44.804Z,32.77
2022-08-23T11:34:29.497Z,33.52
2022-08-23T11:37:19.762Z,33.14
2022-08-23T11:39:57.922Z,35.02
2022-08-23T11:42:52.207Z,33.91
2022-08-23T11:45:46.493Z,33.77
2022-08-23T11:48:25.065Z,36.50
2022-08-23T11:50:57.817Z,37.87
2022-08-23T11:53:50.252Z,33.40
2022-08-23T11:57:10.589Z,35.29
2022-08-23T11:59:54.963Z,36.29
2022-08-23T12:02:47.517Z,38.34
2022-08-23T12:05:23.501Z,38.56
2022-08-23T12:08:31.102Z,38.41
2022-08-23T12:11:05.223Z,40.43
2022-08-23T12:13:51.417Z,41.28
2022-08-23T12:16:21.352Z,40.44
2022-08-23T12:18:53.579Z,40.10
2022-08-23T12:21:51.412Z,38.80
2022-08-23T12:24:35.597Z,39.02
2022-08-23T12:27:26.025Z,40.29
2022-08-23T12:33:22.813Z,39.82
2022-08-23T12:36:20.510Z,39.42
2022-08-23T12:39:15.791Z,40.14
2022-08-23T12:42:13.763Z,40.26
2022-08-23T12:44:41.481Z,40.12
2022-08-23T12:47:21.085Z,38.86
2022-08-23T12:50:21.655Z,37.10
2022-08-23T12:53:09.150Z,35.74
2022-08-23T12:55:47.550Z,37.10
2022-08-23T12:58:17.309Z,34.56
2022-08-23T13:00:58.325Z,32.97
2022-08-23T13:03:29.242Z,31.93
2022-08-23T13:06:06.386Z,31.31
2022-08-23T13:08:40.797Z,30.96
2022-08-23T13:11:09.886Z,30.74
2022-08-23T13:13:44.448Z,31.06
2022-08-23T13:16:42.003Z,30.90
2022-08-23T13:19:33.703Z,32.41
2022-08-23T13:22:22.251Z,32.70
2022-08-23T13:27:58.136Z,33.24
2022-08-23T13:30:38.740Z,33.23
2022-08-23T13:33:08.898Z,33.31
2022-08-23T13:35:47.134Z,33.21
2022-08-23T13:38:20.498Z,33.17
2022-08-23T13:41:03.765Z,33.21
2022-08-23T13:43:40.323Z,31.96
2022-08-23T13:46:22.976Z,31.84
2022-08-23T13:49:01.540Z,31.46
2022-08-23T13:51:39.345Z,31.30
2022-08-23T13:54:13.126Z,30.96
2022-08-23T13:57:03.400Z,31.25
2022-08-23T13:59:40.242Z,30.56
2022-08-23T14:02:14.202Z,30.37
2022-08-23T14:04:42.456Z,30.14
2022-08-23T14:07:10.559Z,29.93
2022-08-23T14:09:39.174Z,30.01
2022-08-23T14:12:15.567Z,30.14
2022-08-23T14:14:43.550Z,30.05
2022-08-23T14:17:15.738Z,30.03
2022-08-23T14:22:35.075Z,29.96
2022-08-23T14:25:02.188Z,29.80
2022-08-23T14:27:29.281Z,30.01
2022-08-23T14:29:56.415Z,30.10
2022-08-23T14:32:23.661Z,30.10
2022-08-23T14:34:52.697Z,30.35
2022-08-23T14:38:00.527Z,30.58
2022-08-23T14:40:09.289Z,30.59
2022-08-23T14:42:36.597Z,30.60
2022-08-23T14:45:04.740Z,30.55
2022-08-23T14:47:31.824Z,29.98
2022-08-23T14:49:58.788Z,29.62
2022-08-23T14:52:25.815Z,29.51
2022-08-23T14:54:53.002Z,29.34
2022-08-23T14:57:20.040Z,29.17
2022-08-23T14:59:47.123Z,29.23
2022-08-23T15:02:21.232Z,29.41
2022-08-23T15:04:48.222Z,29.57
2022-08-23T15:07:18.253Z,29.52
2022-08-23T15:09:51.249Z,29.62
2022-08-23T15:15:22.139Z,29.73
2022-08-23T15:17:56.660Z,29.72
2022-08-23T15:20:29.656Z,29.65
2022-08-23T15:22:56.813Z,29.94
2022-08-23T15:25:29.056Z,30.20
2022-08-23T15:27:56.600Z,30.25
2022-08-23T15:30:24.853Z,30.13
2022-08-23T15:32:56.524Z,30.07
2022-08-23T15:35:25.831Z,29.99
2022-08-23T15:37:54.874Z,29.98
2022-08-23T15:40:23.417Z,29.81
2022-08-23T15:42:50.466Z,30.00
2022-08-23T15:45:18.208Z,29.89
2022-08-23T15:47:55.078Z,29.65
2022-08-23T15:50:26.522Z,29.58
2022-08-23T15:52:54.151Z,29.58
2022-08-23T15:55:21.387Z,29.43
2022-08-23T15:57:52.580Z,29.45
2022-08-23T16:00:22.689Z,29.33
2022-08-23T16:03:18.976Z,29.19
2022-08-23T16:05:41.108Z,28.93
2022-08-23T16:08:09.843Z,28.76
2022-08-23T16:10:38.906Z,28.60
2022-08-23T16:13:05.917Z,28.44
2022-08-23T16:15:32.866Z,28.46
2022-08-23T16:17:59.913Z,28.44
2022-08-23T16:20:26.992Z,28.44
2022-08-23T16:22:53.989Z,28.46
2022-08-23T16:25:20.990Z,28.44
2022-08-23T16:27:48.037Z,28.41
2022-08-23T16:30:15.323Z,28.47
2022-08-23T16:32:42.422Z,28.41
2022-08-23T16:35:10.394Z,28.44
2022-08-23T16:37:37.532Z,28.52
2022-08-23T16:40:07.832Z,28.40
2022-08-23T16:42:34.988Z,28.46
2022-08-23T16:45:02.748Z,28.43
2022-08-23T16:47:34.066Z,28.41
2022-08-23T16:50:01.051Z,28.22
2022-08-23T16:52:34.789Z,28.14
2022-08-23T16:55:09.291Z,28.00
2022-08-23T16:57:36.298Z,27.88
2022-08-23T17:00:07.797Z,27.73
2022-08-23T17:02:37.584Z,27.67
2022-08-23T17:05:08.478Z,27.61
2022-08-23T17:07:35.741Z,27.64
2022-08-23T17:10:04.743Z,27.62
2022-08-23T17:12:34.090Z,27.56
2022-08-23T17:15:01.121Z,27.50
2022-08-23T17:17:28.210Z,27.42
2022-08-23T17:19:55.173Z,27.31
2022-08-23T17:22:22.157Z,27.32
2022-08-23T17:24:49.336Z,27.24
2022-08-23T17:27:20.421Z,27.15
2022-08-23T17:29:47.544Z,27.07
2022-08-23T17:32:14.541Z,27.03
2022-08-23T17:34:41.919Z,26.94
2022-08-23T17:37:20.262Z,26.85
2022-08-23T17:39:51.050Z,26.77
2022-08-23T17:42:21.337Z,26.65
2022-08-23T17:44:48.808Z,26.53
2022-08-23T17:47:18.020Z,26.41
2022-08-23T17:49:47.741Z,26.33
2022-08-23T17:52:15.841Z,26.24
2022-08-23T17:54:43.562Z,26.18
2022-08-23T17:57:11.594Z,26.08
2022-08-23T17:59:39.084Z,25.98
2022-08-23T18:02:08.088Z,25.83
2022-08-23T18:04:36.315Z,25.85
2022-08-23T18:07:04.783Z,25.69
2022-08-23T18:09:32.327Z,25.52
2022-08-23T18:12:00.430Z,25.36
2022-08-23T18:14:28.844Z,25.24
2022-08-23T18:16:56.705Z,24.99
2022-08-23T18:19:24.609Z,24.88
2022-08-23T18:21:52.255Z,24.80
2022-08-23T18:24:20.565Z,24.84
2022-08-23T18:27:06.903Z,24.74
2022-08-23T18:29:37.131Z,24.66
2022-08-23T18:32:08.873Z,24.22
2022-08-23T18:34:37.923Z,24.01
2022-08-23T18:37:05.378Z,23.85
2022-08-23T18:39:32.594Z,23.79
2022-08-23T18:42:05.612Z,23.77
2022-08-23T18:44:33.662Z,23.65
2022-08-23T18:47:02.179Z,23.54
2022-08-23T18:49:31.085Z,23.50
2022-08-23T18:51:59.231Z,23.42
2022-08-23T18:54:29.810Z,23.43
2022-08-23T18:57:01.072Z,23.31
2022-08-23T18:59:28.624Z,23.18
2022-08-23T19:01:56.676Z,23.22
2022-08-23T19:04:24.385Z,23.10
2022-08-23T19:06:54.215Z,23.08
2022-08-23T19:09:22.051Z,23.16
2022-08-23T19:11:49.302Z,23.13
2022-08-23T19:14:16.389Z,23.00
2022-08-23T19:16:47.905Z,22.95
2022-08-23T19:19:16.532Z,22.78
2022-08-23T19:21:43.736Z,22.62
2022-08-23T19:24:10.724Z,22.63
2022-08-23T19:26:38.192Z,22.52
2022-08-23T19:29:09.054Z,22.41
2022-08-23T19:31:42.634Z,22.38
2022-08-23T19:34:10.659Z,22.27
2022-08-23T19:36:47.551Z,22.22
2022-08-23T19:39:18.545Z,22.09
2022-08-23T19:41:48.353Z,21.92
2022-08-23T19:44:17.877Z,21.73
2022-08-23T19:46:45.646Z,21.66
2022-08-23T19:49:14.505Z,21.34
2022-08-23T19:51:42.523Z,21.01
2022-08-23T19:54:12.390Z,20.93
2022-08-23T19:56:45.826Z,20.81
2022-08-23T19:59:21.830Z,20.80
2022-08-23T20:01:50.368Z,20.83
2022-08-23T20:04:19.269Z,20.71
2022-08-23T20:06:48.624Z,20.30
2022-08-23T20:09:16.821Z,20.44
2022-08-23T20:11:44.070Z,20.64
2022-08-23T20:14:11.408Z,20.62
2022-08-23T20:16:40.874Z,20.74
2022-08-23T20:19:09.862Z,20.97
2022-08-23T20:21:38.687Z,21.09
2022-08-23T20:24:07.876Z,21.37
2022-08-23T20:26:43.729Z,21.61
2022-08-23T20:29:18.101Z,21.57
2022-08-23T20:31:56.729Z,21.29
2022-08-23T20:34:27.023Z,21.04
2022-08-23T20:36:56.167Z,21.04
2022-08-23T20:39:24.683Z,21.03
2022-08-23T20:41:53.034Z,21.32
2022-08-23T20:44:22.388Z,21.49
2022-08-23T20:46:53.940Z,21.66
2022-08-23T20:49:22.877Z,21.72
2022-08-23T20:51:50.417Z,21.73
2022-08-23T20:54:18.239Z,21.72
2022-08-23T20:56:45.716Z,21.77
2022-08-23T20:59:15.553Z,21.82
2022-08-23T21:01:42.581Z,21.85
2022-08-23T21:04:10.438Z,21.87
2022-08-23T21:06:45.180Z,21.66
2022-08-23T21:09:17.084Z,21.46
2022-08-23T21:11:45.197Z,21.47
2022-08-23T21:14:15.202Z,21.41
2022-08-23T21:16:43.342Z,21.42
2022-08-23T21:19:10.427Z,21.47
2022-08-23T21:21:39.246Z,21.58
2022-08-23T21:24:09.189Z,21.54
2022-08-23T21:26:37.125Z,21.52
2022-08-23T21:29:07.627Z,21.51
2022-08-23T21:31:35.571Z,21.63
2022-08-23T21:34:02.757Z,21.58
2022-08-23T21:36:30.200Z,21.55
2022-08-23T21:38:57.361Z,21.53
2022-08-23T21:41:32.009Z,21.53
2022-08-23T21:43:59.690Z,21.42
2022-08-23T21:46:27.184Z,21.05
2022-08-23T21:48:54.428Z,20.87
2022-08-23T21:51:21.611Z,20.54
2022-08-23T21:53:48.695Z,20.40
2022-08-23T21:56:15.753Z,20.44
2022-08-23T21:58:44.113Z,20.43
2022-08-23T22:01:11.765Z,20.16
2022-08-23T22:03:38.952Z,20.08
2022-08-23T22:06:13.419Z,19.96
2022-08-23T22:08:42.449Z,19.82
2022-08-23T22:11:11.382Z,19.55
2022-08-23T22:13:39.998Z,19.37
2022-08-23T22:16:07.546Z,19.21
2022-08-23T22:18:35.937Z,19.16
2022-08-23T22:21:04.312Z,18.74
2022-08-23T22:23:31.797Z,18.83
2022-08-23T22:26:06.812Z,18.85
2022-08-23T22:28:36.096Z,18.65
2022-08-23T22:31:06.330Z,18.50
2022-08-23T22:33:33.527Z,18.24
2022-08-23T22:36:10.982Z,18.11
2022-08-23T22:38:38.960Z,18.10
2022-08-23T22:41:06.406Z,18.08
2022-08-23T22:43:33.442Z,17.92
2022-08-23T22:46:02.753Z,17.80
2022-08-23T22:48:32.708Z,17.88
2022-08-23T22:51:37.247Z,17.87
2022-08-23T22:54:09.248Z,17.65
2022-08-23T22:56:47.071Z,17.53
2022-08-23T22:59:16.013Z,17.61
2022-08-23T23:01:54.894Z,17.45
2022-08-23T23:04:26.363Z,17.25
2022-08-23T23:06:55.067Z,17.01
2022-08-23T23:09:22.352Z,17.01
2022-08-23T23:11:49.569Z,16.98
2022-08-23T23:14:19.041Z,16.95
2022-08-23T23:16:49.087Z,17.18
2022-08-23T23:19:36.125Z,16.79
2022-08-23T23:22:04.854Z,16.72
2022-08-23T23:24:36.234Z,16.72
2022-08-23T23:27:04.011Z,16.60
2022-08-23T23:29:32.319Z,16.87
2022-08-23T23:31:59.674Z,16.57
2022-08-23T23:34:27.906Z,16.77
2022-08-23T23:36:59.356Z,16.62
2022-08-23T23:39:27.657Z,16.29
2022-08-23T23:41:55.514Z,16.07
2022-08-23T23:44:29.895Z,15.97
2022-08-23T23:47:01.209Z,15.78
2022-08-23T23:49:32.093Z,15.79
2022-08-23T23:52:00.789Z,15.94
2022-08-23T23:54:27.797Z,15.81
2022-08-23T23:56:55.128Z,16.04
2022-08-23T23:59:22.156Z,15.92
